createdAt,value
2018-02-08T00:00:51.504Z,45.08
2018-02-08T00:03:19.720Z,42.30
2018-02-08T00:05:47.855Z,42.60
2018-02-08T00:08:15.976Z,47.03
2018-02-08T00:10:44.276Z,43.10
2018-02-08T00:13:12.557Z,47.15
2018-02-08T00:15:40.701Z,39.65
2018-02-08T00:18:09.609Z,44.33
2018-02-08T00:20:37.753Z,45.10
2018-02-08T00:23:07.042Z,42.62
2018-02-08T00:25:35.182Z,42.78
2018-02-08T00:28:03.303Z,42.47
2018-02-08T00:30:31.458Z,44.30
2018-02-08T00:32:59.597Z,46.80
2018-02-08T00:35:27.737Z,43.70
2018-02-08T00:37:55.906Z,45.63
2018-02-08T00:40:24.061Z,46.15
2018-02-08T00:42:52.950Z,45.20
2018-02-08T00:45:21.850Z,48.87
2018-02-08T00:47:50.746Z,48.55
2018-02-08T00:50:18.945Z,48.25
2018-02-08T00:52:47.081Z,46.65
2018-02-08T00:55:15.984Z,49.30
2018-02-08T00:57:44.141Z,49.63
2018-02-08T01:00:13.542Z,47.67
2018-02-08T01:02:42.562Z,46.85
2018-02-08T01:05:10.680Z,48.92
2018-02-08T01:07:38.820Z,49.75
2018-02-08T01:10:06.952Z,51.75
2018-02-08T01:12:35.121Z,47.33
2018-02-08T01:15:04.018Z,50.60
2018-02-08T01:17:32.158Z,51.37
2018-02-08T01:20:00.347Z,49.20
2018-02-08T01:22:28.649Z,51.90
2018-02-08T01:24:56.774Z,51.03
2018-02-08T01:27:24.920Z,47.95
2018-02-08T01:29:53.090Z,49.75
2018-02-08T01:32:21.225Z,53.22
2018-02-08T01:34:49.361Z,50.83
2018-02-08T01:37:17.496Z,53.63
2018-02-08T01:39:45.621Z,48.70
2018-02-08T01:42:13.753Z,48.67
2018-02-08T01:44:42.660Z,48.70
2018-02-08T01:47:10.799Z,49.70
2018-02-08T01:49:45.711Z,47.55
2018-02-08T01:52:13.804Z,46.72
2018-02-08T01:54:41.945Z,52.17
2018-02-08T01:57:10.089Z,52.60
2018-02-08T01:59:38.227Z,50.72
2018-02-08T02:02:06.395Z,51.53
2018-02-08T02:04:34.536Z,50.42
2018-02-08T02:07:02.672Z,50.08
2018-02-08T02:09:30.858Z,47.03
2018-02-08T02:11:59.763Z,46.72
2018-02-08T02:14:27.980Z,49.15
2018-02-08T02:16:56.109Z,48.13
2018-02-08T02:19:24.249Z,50.80
2018-02-08T02:22:08.212Z,50.65
2018-02-08T02:24:37.141Z,49.80
2018-02-08T02:27:05.267Z,53.08
2018-02-08T02:29:33.430Z,47.78
2018-02-08T02:32:01.564Z,49.88
2018-02-08T02:34:29.696Z,53.42
2018-02-08T02:36:57.849Z,51.42
2018-02-08T02:39:25.998Z,52.88
2018-02-08T02:41:54.128Z,52.03
2018-02-08T02:44:22.305Z,49.50
2018-02-08T02:46:50.421Z,50.35
2018-02-08T02:49:18.553Z,52.00
2018-02-08T02:51:46.691Z,52.05
2018-02-08T02:54:15.581Z,47.62
2018-02-08T02:56:43.730Z,48.70
2018-02-08T02:59:11.858Z,52.88
2018-02-08T03:01:40.037Z,51.88
2018-02-08T03:04:08.161Z,47.53
2018-02-08T03:06:37.071Z,46.55
2018-02-08T03:09:05.204Z,49.65
2018-02-08T03:11:33.363Z,45.97
2018-02-08T03:14:01.503Z,47.25
2018-02-08T03:16:29.689Z,50.95
2018-02-08T03:18:57.818Z,49.33
2018-02-08T03:21:25.968Z,52.60
2018-02-08T03:23:54.133Z,56.10
2018-02-08T03:26:22.276Z,53.38
2018-02-08T03:28:50.408Z,54.80
2018-02-08T03:31:22.140Z,52.47
2018-02-08T03:33:51.037Z,48.35
2018-02-08T03:36:19.994Z,49.17
2018-02-08T03:38:48.137Z,54.10
2018-02-08T03:41:16.269Z,53.05
2018-02-08T03:43:44.415Z,48.97
2018-02-08T03:46:12.930Z,48.17
2018-02-08T03:48:41.085Z,52.03
2018-02-08T03:51:09.990Z,52.33
2018-02-08T03:53:38.135Z,52.70
2018-02-08T03:56:06.281Z,46.00
2018-02-08T03:58:34.448Z,49.65
2018-02-08T04:01:02.575Z,49.78
2018-02-08T04:03:30.739Z,49.15
2018-02-08T04:05:59.629Z,46.58
2018-02-08T04:08:28.849Z,50.08
2018-02-08T04:10:56.974Z,51.33
2018-02-08T04:13:25.270Z,53.58
2018-02-08T04:15:54.195Z,48.08
2018-02-08T04:18:22.332Z,48.75
2018-02-08T04:20:51.357Z,47.65
2018-02-08T04:23:19.491Z,47.60
2018-02-08T04:25:48.388Z,52.33
2018-02-08T04:28:16.557Z,47.62
2018-02-08T04:30:45.454Z,52.83
2018-02-08T04:33:14.360Z,52.92
2018-02-08T04:35:42.509Z,53.47
2018-02-08T04:38:17.612Z,46.20
2018-02-08T04:54:16.085Z,47.08
2018-02-08T04:56:44.325Z,46.17
2018-02-08T04:59:12.464Z,45.88
2018-02-08T05:01:40.594Z,49.20
2018-02-08T05:04:08.736Z,52.60
2018-02-08T05:06:36.856Z,55.05
2018-02-08T05:09:05.801Z,53.80
2018-02-08T05:11:33.966Z,48.83
2018-02-08T05:14:02.189Z,53.97
2018-02-08T05:16:31.113Z,55.33
2018-02-08T05:18:59.287Z,52.38
2018-02-08T05:21:27.437Z,57.53
2018-02-08T05:23:56.331Z,55.08
2018-02-08T05:26:24.478Z,56.03
2018-02-08T05:28:52.628Z,48.53
2018-02-08T05:31:20.817Z,48.45
2018-02-08T05:33:48.966Z,56.17
2018-02-08T05:36:17.192Z,52.10
2018-02-08T05:38:46.081Z,56.03
2018-02-08T05:41:14.349Z,50.15
2018-02-08T05:43:42.502Z,47.65
2018-02-08T05:46:10.644Z,53.87
2018-02-08T05:48:38.783Z,54.08
2018-02-08T05:51:06.933Z,50.33
2018-02-08T05:53:35.836Z,60.45
2018-02-08T05:56:04.110Z,54.25
2018-02-08T05:58:32.324Z,52.28
2018-02-08T06:01:00.547Z,53.50
2018-02-08T06:03:29.752Z,47.83
2018-02-08T06:05:59.309Z,58.00
2018-02-08T06:08:27.506Z,52.10
2018-02-08T06:10:55.957Z,56.78
2018-02-08T06:13:24.153Z,47.47
2018-02-08T06:15:52.541Z,55.90
2018-02-08T06:18:20.850Z,50.20
2018-02-08T06:20:49.045Z,53.15
2018-02-08T06:23:17.209Z,52.35
2018-02-08T06:25:45.740Z,46.70
2018-02-08T06:28:14.080Z,49.13
2018-02-08T06:30:43.314Z,53.45
2018-02-08T06:33:11.448Z,52.45
2018-02-08T06:35:40.401Z,50.70
2018-02-08T06:38:08.562Z,53.10
2018-02-08T06:40:36.792Z,48.55
2018-02-08T06:43:04.948Z,46.92
2018-02-08T06:45:33.077Z,46.22
2018-02-08T06:48:01.249Z,48.58
2018-02-08T06:50:29.385Z,46.70
2018-02-08T06:52:57.530Z,53.38
2018-02-08T06:55:25.652Z,46.67
2018-02-08T06:57:53.796Z,51.13
2018-02-08T07:00:22.368Z,47.55
2018-02-08T07:02:51.266Z,48.92
2018-02-08T07:05:19.384Z,52.10
2018-02-08T07:07:47.524Z,49.28
2018-02-08T07:10:16.417Z,51.30
2018-02-08T07:12:45.337Z,47.47
2018-02-08T07:15:13.469Z,48.38
2018-02-08T07:17:41.623Z,49.13
2018-02-08T07:20:11.563Z,47.20
2018-02-08T07:22:39.973Z,49.55
2018-02-08T07:25:08.256Z,50.35
2018-02-08T07:27:36.452Z,55.80
2018-02-08T07:30:04.647Z,48.40
2018-02-08T07:32:32.966Z,47.67
2018-02-08T07:35:01.942Z,44.95
2018-02-08T07:37:30.146Z,45.80
2018-02-08T07:39:58.377Z,44.95
2018-02-08T07:42:26.585Z,43.83
2018-02-08T07:44:54.765Z,45.60
2018-02-08T07:47:23.061Z,43.87
2018-02-08T07:49:51.307Z,47.92
2018-02-08T07:52:19.678Z,51.33
2018-02-08T07:54:47.885Z,41.63
2018-02-08T07:57:16.469Z,47.90
2018-02-08T07:59:44.869Z,43.08
2018-02-08T08:02:13.089Z,45.95
2018-02-08T08:04:41.415Z,46.85
2018-02-08T08:07:10.525Z,46.13
2018-02-08T08:09:38.869Z,48.28
2018-02-08T08:12:07.932Z,46.67
2018-02-08T08:14:36.519Z,45.25
2018-02-08T08:17:04.726Z,43.92
2018-02-08T08:19:32.992Z,42.95
2018-02-08T08:22:01.184Z,46.65
2018-02-08T08:24:29.378Z,55.05
2018-02-08T08:26:57.643Z,45.72
2018-02-08T08:29:26.904Z,42.42
2018-02-08T08:31:55.134Z,48.33
2018-02-08T08:34:23.313Z,49.50
2018-02-08T08:36:51.771Z,49.55
2018-02-08T08:39:21.754Z,52.70
2018-02-08T08:41:50.172Z,52.17
2018-02-08T08:44:18.556Z,52.20
2018-02-08T08:46:47.004Z,54.60
2018-02-08T08:49:15.406Z,50.15
2018-02-08T08:51:44.627Z,50.05
2018-02-08T08:54:12.742Z,48.13
2018-02-08T08:56:40.884Z,50.33
2018-02-08T08:59:09.014Z,50.30
2018-02-08T09:01:37.540Z,44.13
2018-02-08T09:04:05.651Z,49.85
2018-02-08T09:06:34.569Z,52.10
2018-02-08T09:09:02.694Z,52.72
2018-02-08T09:11:30.846Z,50.00
2018-02-08T09:13:58.997Z,51.35
2018-02-08T09:16:27.218Z,54.08
2018-02-08T09:18:56.139Z,45.83
2018-02-08T09:21:24.272Z,43.10
2018-02-08T09:23:52.445Z,42.62
2018-02-08T09:26:20.608Z,45.90
2018-02-08T09:28:48.795Z,46.90
2018-02-08T09:31:17.314Z,49.00
2018-02-08T09:33:50.261Z,48.22
2018-02-08T09:36:18.417Z,50.63
2018-02-08T09:38:46.538Z,45.95
2018-02-08T09:41:14.686Z,49.70
2018-02-08T09:43:43.666Z,50.95
2018-02-08T09:46:12.562Z,51.22
2018-02-08T09:48:57.573Z,45.12
2018-02-08T09:51:38.108Z,47.38
2018-02-08T09:54:06.241Z,47.10
2018-02-08T09:56:34.481Z,41.33
2018-02-08T09:59:02.609Z,42.75
2018-02-08T10:01:31.510Z,48.20
2018-02-08T10:04:17.426Z,48.67
2018-02-08T10:07:00.450Z,48.13
2018-02-08T10:09:28.645Z,48.70
2018-02-08T10:11:56.848Z,44.28
2018-02-08T10:14:25.014Z,46.55
2018-02-08T10:16:53.148Z,50.10
2018-02-08T10:19:22.069Z,50.85
2018-02-08T10:21:50.213Z,51.20
2018-02-08T10:24:18.381Z,49.80
2018-02-08T10:26:46.480Z,50.22
2018-02-08T10:29:14.621Z,45.97
2018-02-08T10:31:42.761Z,50.67
2018-02-08T10:34:10.896Z,50.10
2018-02-08T10:36:39.033Z,51.15
2018-02-08T10:39:07.192Z,47.30
2018-02-08T10:41:35.329Z,51.97
2018-02-08T10:44:03.538Z,50.63
2018-02-08T10:46:31.677Z,49.95
2018-02-08T10:49:00.586Z,45.00
2018-02-08T10:51:28.721Z,44.55
2018-02-08T10:53:56.890Z,46.08
2018-02-08T10:56:25.825Z,51.20
2018-02-08T10:58:53.950Z,46.70
2018-02-08T11:01:22.093Z,45.88
2018-02-08T11:03:50.248Z,48.92
2018-02-08T11:06:18.378Z,50.35
2018-02-08T11:08:47.293Z,42.72
2018-02-08T11:11:16.208Z,42.15
2018-02-08T11:13:44.336Z,46.22
2018-02-08T11:16:13.255Z,44.60
2018-02-08T11:18:41.389Z,45.95
2018-02-08T11:21:09.541Z,43.63
2018-02-08T11:23:37.672Z,46.78
2018-02-08T11:26:05.821Z,40.15
2018-02-08T11:28:33.966Z,41.70
2018-02-08T11:31:02.131Z,43.35
2018-02-08T11:33:30.262Z,41.83
2018-02-08T11:35:58.380Z,39.17
2018-02-08T11:38:27.278Z,44.55
2018-02-08T11:40:56.194Z,41.92
2018-02-08T11:43:24.341Z,34.92
2018-02-08T11:45:53.226Z,36.05
2018-02-08T11:48:21.369Z,32.55
2018-02-08T11:50:49.507Z,31.70
2018-02-08T11:53:17.648Z,37.63
2018-02-08T11:55:45.781Z,33.17
2018-02-08T11:58:13.926Z,37.50
2018-02-08T12:00:42.050Z,37.75
2018-02-08T12:03:10.962Z,41.80
2018-02-08T12:05:39.094Z,41.88
2018-02-08T12:08:07.260Z,42.75
2018-02-08T12:10:35.434Z,41.72
2018-02-08T12:13:03.577Z,45.33
2018-02-08T12:15:31.700Z,47.42
2018-02-08T12:18:00.626Z,45.47
2018-02-08T12:20:29.868Z,49.08
2018-02-08T12:22:58.109Z,49.13
2018-02-08T12:25:26.248Z,46.50
2018-02-08T12:27:54.377Z,45.70
2018-02-08T12:30:22.514Z,45.55
2018-02-08T12:32:50.638Z,44.15
2018-02-08T12:35:19.536Z,43.95
2018-02-08T12:37:48.449Z,47.35
2018-02-08T12:40:16.577Z,47.08
2018-02-08T12:42:44.700Z,45.45
2018-02-08T12:45:12.861Z,46.70
2018-02-08T12:47:40.977Z,46.35
2018-02-08T12:50:09.115Z,42.53
2018-02-08T12:52:37.233Z,43.28
2018-02-08T12:55:05.384Z,46.33
2018-02-08T12:57:33.519Z,46.17
2018-02-08T13:00:01.661Z,51.03
2018-02-08T13:02:29.784Z,41.65
2018-02-08T13:04:57.904Z,48.28
2018-02-08T13:07:26.045Z,50.28
2018-02-08T13:09:54.161Z,49.55
2018-02-08T13:12:22.301Z,45.85
2018-02-08T13:14:50.927Z,47.35
2018-02-08T13:17:19.803Z,44.60
2018-02-08T13:19:48.700Z,45.58
2018-02-08T13:22:16.841Z,46.60
2018-02-08T13:24:44.958Z,42.05
2018-02-08T13:27:13.101Z,44.00
2018-02-08T13:29:41.289Z,45.33
2018-02-08T13:32:09.441Z,44.67
2018-02-08T13:34:38.332Z,45.50
2018-02-08T13:37:07.230Z,45.25
2018-02-08T13:39:37.988Z,48.72
2018-02-08T13:42:21.934Z,45.63
2018-02-08T13:44:50.086Z,48.85
2018-02-08T13:47:24.003Z,50.22
2018-02-08T13:50:02.034Z,46.17
2018-02-08T13:52:35.773Z,48.00
2018-02-08T14:08:26.229Z,52.45
2018-02-08T14:10:54.374Z,51.35
2018-02-08T14:13:22.508Z,49.67
2018-02-08T14:15:51.533Z,40.45
2018-02-08T14:18:19.688Z,44.10
2018-02-08T14:20:47.839Z,50.20
2018-02-08T14:23:16.000Z,52.00
2018-02-08T14:25:44.880Z,50.22
2018-02-08T14:28:13.789Z,49.90
2018-02-08T14:30:42.033Z,55.55
2018-02-08T14:33:10.383Z,49.05
2018-02-08T14:35:38.594Z,50.50
2018-02-08T14:38:06.775Z,51.42
2018-02-08T14:40:34.888Z,51.85
2018-02-08T14:43:03.124Z,47.05
2018-02-08T14:45:31.301Z,46.85
2018-02-08T14:47:59.488Z,45.92
2018-02-08T14:50:27.891Z,45.92
2018-02-08T14:52:56.146Z,43.65
2018-02-08T14:55:24.381Z,46.42
2018-02-08T14:57:52.566Z,45.63
2018-02-08T15:00:20.934Z,43.47
2018-02-08T15:02:49.167Z,45.15
2018-02-08T15:05:18.398Z,43.60
2018-02-08T15:07:47.319Z,42.67
2018-02-08T15:10:15.606Z,42.10
2018-02-08T15:12:44.644Z,45.28
2018-02-08T15:15:12.799Z,42.22
2018-02-08T15:17:41.062Z,43.00
2018-02-08T15:20:09.284Z,49.83
2018-02-08T15:22:37.553Z,50.78
2018-02-08T15:25:05.697Z,47.92
2018-02-08T15:27:33.837Z,47.67
2018-02-08T15:30:01.994Z,49.72
2018-02-08T15:32:30.167Z,47.78
2018-02-08T15:34:59.016Z,50.50
2018-02-08T15:37:27.896Z,49.80
2018-02-08T15:39:56.790Z,48.85
2018-02-08T15:42:25.686Z,46.92
2018-02-08T15:44:54.622Z,43.70
2018-02-08T15:47:22.817Z,48.67
2018-02-08T15:49:50.962Z,45.72
2018-02-08T15:52:19.118Z,45.78
2018-02-08T15:54:47.257Z,47.92
2018-02-08T15:57:16.274Z,46.85
2018-02-08T15:59:46.038Z,46.42
2018-02-08T16:02:14.349Z,47.42
2018-02-08T16:04:42.456Z,49.47
2018-02-08T16:07:10.787Z,57.70
2018-02-08T16:09:38.949Z,47.83
2018-02-08T16:12:07.196Z,48.25
2018-02-08T16:14:35.424Z,51.10
2018-02-08T16:17:03.556Z,49.78
2018-02-08T16:19:31.894Z,49.15
2018-02-08T16:22:00.015Z,51.95
2018-02-08T16:24:28.229Z,47.80
2018-02-08T16:26:56.373Z,51.90
2018-02-08T16:29:24.499Z,50.80
2018-02-08T16:31:52.636Z,50.85
2018-02-08T16:34:20.790Z,49.20
2018-02-08T16:36:48.980Z,55.92
2018-02-08T16:39:17.110Z,55.12
2018-02-08T16:41:45.278Z,59.65
2018-02-08T16:44:13.426Z,52.70
2018-02-08T16:46:41.554Z,52.40
2018-02-08T16:49:09.689Z,64.10
2018-02-08T16:51:38.609Z,55.17
2018-02-08T16:54:06.735Z,55.58
2018-02-08T16:56:34.886Z,59.05
2018-02-08T16:59:03.009Z,50.53
2018-02-08T17:01:32.710Z,54.13
2018-02-08T17:04:01.610Z,62.65
2018-02-08T17:06:29.757Z,57.55
2018-02-08T17:08:57.898Z,50.63
2018-02-08T17:11:26.038Z,47.10
2018-02-08T17:13:54.182Z,50.30
2018-02-08T17:16:22.298Z,52.88
2018-02-08T17:18:50.485Z,56.25
2018-02-08T17:21:18.644Z,53.92
2018-02-08T17:23:46.780Z,56.72
2018-02-08T17:26:16.032Z,53.53
2018-02-08T17:28:44.152Z,57.55
2018-02-08T17:31:12.292Z,51.45
2018-02-08T17:33:40.452Z,60.75
2018-02-08T17:36:08.585Z,56.78
2018-02-08T17:38:36.752Z,52.95
2018-02-08T17:41:04.914Z,53.42
2018-02-08T17:43:33.838Z,55.47
2018-02-08T17:46:01.980Z,59.00
2018-02-08T17:48:30.135Z,57.80
2018-02-08T17:50:59.027Z,59.15
2018-02-08T17:53:27.940Z,55.20
2018-02-08T17:55:56.820Z,54.05
2018-02-08T17:58:24.957Z,50.25
2018-02-08T18:00:53.231Z,51.17
2018-02-08T18:03:22.117Z,53.00
2018-02-08T18:05:50.282Z,46.37
2018-02-08T18:08:18.397Z,50.67
2018-02-08T18:10:46.548Z,50.53
2018-02-08T18:13:15.445Z,51.92
2018-02-08T18:15:43.590Z,49.92
2018-02-08T18:18:11.845Z,53.33
2018-02-08T18:20:39.980Z,49.90
2018-02-08T18:23:08.167Z,51.72
2018-02-08T18:25:36.648Z,51.35
2018-02-08T18:28:04.763Z,49.33
2018-02-08T18:30:32.956Z,55.90
2018-02-08T18:33:01.113Z,53.25
2018-02-08T18:35:30.344Z,52.25
2018-02-08T18:37:58.532Z,51.50
2018-02-08T18:40:27.415Z,53.72
2018-02-08T18:42:55.544Z,52.35
2018-02-08T18:45:24.561Z,50.60
2018-02-08T18:47:52.690Z,51.17
2018-02-08T18:50:20.884Z,55.03
2018-02-08T18:52:49.198Z,48.97
2018-02-08T18:55:17.345Z,48.00
2018-02-08T18:57:45.489Z,47.65
2018-02-08T19:00:20.539Z,47.65
2018-02-08T19:02:51.527Z,51.08
2018-02-08T19:05:19.756Z,55.30
2018-02-08T19:07:48.844Z,63.20
2018-02-08T19:10:17.121Z,61.75
2018-02-08T19:12:46.034Z,60.45
2018-02-08T19:15:14.202Z,55.75
2018-02-08T19:17:43.109Z,53.25
2018-02-08T19:20:11.262Z,51.10
2018-02-08T19:22:39.537Z,50.38
2018-02-08T19:25:07.688Z,48.38
2018-02-08T19:27:36.628Z,49.03
2018-02-08T19:30:04.882Z,50.28
2018-02-08T19:32:33.272Z,57.62
2018-02-08T19:35:01.493Z,52.55
2018-02-08T19:37:29.713Z,51.40
2018-02-08T19:39:57.853Z,55.88
2018-02-08T19:42:26.111Z,49.13
2018-02-08T19:44:55.487Z,53.80
2018-02-08T19:47:25.678Z,53.08
2018-02-08T19:49:53.832Z,54.05
2018-02-08T19:52:22.038Z,48.55
2018-02-08T19:54:50.183Z,53.75
2018-02-08T19:57:18.334Z,54.47
2018-02-08T19:59:46.576Z,63.65
2018-02-08T20:02:14.864Z,59.55
2018-02-08T20:04:42.974Z,58.67
2018-02-08T20:07:11.196Z,53.60
2018-02-08T20:09:39.550Z,55.45
2018-02-08T20:12:07.821Z,75.10
2018-02-08T20:14:51.906Z,79.93
2018-02-08T20:17:20.911Z,77.62
2018-02-08T20:19:49.254Z,66.95
2018-02-08T20:22:17.478Z,92.12
2018-02-08T20:24:45.639Z,79.70
2018-02-08T20:27:13.821Z,95.28
2018-02-08T20:29:43.652Z,72.72
2018-02-08T20:32:11.832Z,70.97
2018-02-08T20:34:39.985Z,65.15
2018-02-08T20:37:08.171Z,64.37
2018-02-08T20:39:36.312Z,56.63
2018-02-08T20:42:04.472Z,61.10
2018-02-08T20:44:33.484Z,61.83
2018-02-08T20:47:01.645Z,60.25
2018-02-08T20:49:29.866Z,60.90
2018-02-08T20:51:58.038Z,57.05
2018-02-08T20:54:26.190Z,61.08
2018-02-08T20:56:54.332Z,62.67
2018-02-08T20:59:22.496Z,54.42
2018-02-08T21:01:51.431Z,52.40
2018-02-08T21:04:19.603Z,53.40
2018-02-08T21:06:47.756Z,53.42
2018-02-08T21:09:15.877Z,56.78
2018-02-08T21:11:44.085Z,52.25
2018-02-08T21:14:12.260Z,51.53
2018-02-08T21:16:41.169Z,52.13
2018-02-08T21:19:09.323Z,50.88
2018-02-08T21:21:37.592Z,48.20
2018-02-08T21:24:05.757Z,57.17
2018-02-08T21:26:33.941Z,52.22
2018-02-08T21:29:02.821Z,64.57
2018-02-08T21:31:30.961Z,51.75
2018-02-08T21:33:59.104Z,67.95
2018-02-08T21:36:27.272Z,50.60
2018-02-08T21:38:55.423Z,62.15
2018-02-08T21:41:23.593Z,51.65
2018-02-08T21:43:51.736Z,53.25
2018-02-08T21:46:20.651Z,51.72
2018-02-08T21:48:48.809Z,52.35
2018-02-08T21:51:16.945Z,54.58
2018-02-08T21:53:45.086Z,72.93
2018-02-08T21:56:13.224Z,49.83
2018-02-08T21:58:41.367Z,58.25
2018-02-08T22:01:09.593Z,83.97
2018-02-08T22:03:37.774Z,54.28
2018-02-08T22:06:05.925Z,68.60
2018-02-08T22:08:34.094Z,59.70
2018-02-08T22:11:02.221Z,58.90
2018-02-08T22:13:31.136Z,105.15
2018-02-08T22:15:59.285Z,54.15
2018-02-08T22:18:27.433Z,67.75
2018-02-08T22:20:55.598Z,53.53
2018-02-08T22:23:24.517Z,67.65
2018-02-08T22:25:52.642Z,59.22
2018-02-08T22:28:20.829Z,55.40
2018-02-08T22:30:48.960Z,52.42
2018-02-08T22:33:17.130Z,50.15
2018-02-08T22:35:45.256Z,53.22
2018-02-08T22:38:13.437Z,52.75
2018-02-08T22:40:41.564Z,53.55
2018-02-08T22:43:09.706Z,54.47
2018-02-08T22:45:37.854Z,54.85
2018-02-08T22:48:05.993Z,56.80
2018-02-08T22:50:34.132Z,62.17
2018-02-08T22:53:02.268Z,52.97
2018-02-08T22:55:30.393Z,55.17
2018-02-08T22:57:58.535Z,53.13
2018-02-08T23:00:26.684Z,53.60
2018-02-08T23:02:55.605Z,57.47
2018-02-08T23:05:23.746Z,58.50
2018-02-08T23:07:51.870Z,52.45
2018-02-08T23:10:20.321Z,59.45
2018-02-08T23:12:48.473Z,54.08
2018-02-08T23:15:16.692Z,59.63
2018-02-08T23:17:45.072Z,59.45
2018-02-08T23:20:13.477Z,55.80
2018-02-08T23:22:41.825Z,60.00
2018-02-08T23:25:10.901Z,58.15
2018-02-08T23:27:39.124Z,58.40
2018-02-08T23:30:07.269Z,57.40
2018-02-08T23:32:35.540Z,62.33
2018-02-08T23:35:03.696Z,55.28
2018-02-08T23:37:31.848Z,55.88
2018-02-08T23:39:59.986Z,54.10
2018-02-08T23:42:28.124Z,56.33
2018-02-08T23:44:56.289Z,57.15
2018-02-08T23:47:25.133Z,58.63
2018-02-08T23:49:53.368Z,54.42
2018-02-08T23:52:21.741Z,60.95
2018-02-08T23:54:49.894Z,55.67
2018-02-08T23:57:18.106Z,59.90
2018-02-08T23:59:46.290Z,56.05
